createdAt,value
2024-03-05T00:00:03.898Z,10.57
2024-03-05T00:01:03.959Z,10.57
2024-03-05T00:02:03.907Z,10.55
2024-03-05T00:03:03.861Z,10.54
2024-03-05T00:04:03.845Z,10.52
2024-03-05T00:05:03.987Z,10.47
2024-03-05T00:06:03.851Z,10.44
2024-03-05T00:07:03.831Z,10.43
2024-03-05T00:08:03.972Z,10.39
2024-03-05T00:09:03.789Z,10.36
2024-03-05T00:10:03.806Z,10.36
2024-03-05T00:11:03.885Z,10.34
2024-03-05T00:12:03.759Z,10.32
2024-03-05T00:13:03.754Z,10.29
2024-03-05T00:14:03.739Z,10.26
2024-03-05T00:15:03.728Z,10.22
2024-03-05T00:16:03.741Z,10.17
2024-03-05T00:17:03.705Z,10.16
2024-03-05T00:18:03.699Z,10.11
2024-03-05T00:19:03.676Z,10.07
2024-03-05T00:20:03.670Z,10.06
2024-03-05T00:21:03.660Z,10.01
2024-03-05T00:22:03.654Z,9.98
2024-03-05T00:23:03.675Z,9.93
2024-03-05T00:24:03.674Z,9.91
2024-03-05T00:25:03.614Z,9.85
2024-03-05T00:26:24.630Z,9.80
2024-03-05T00:27:24.650Z,9.80
2024-03-05T00:28:24.637Z,9.78
2024-03-05T00:29:24.662Z,9.75
2024-03-05T00:30:24.601Z,9.73
2024-03-05T00:31:24.582Z,9.71
2024-03-05T00:32:24.561Z,9.70
2024-03-05T00:33:24.520Z,9.67
2024-03-05T00:34:24.641Z,9.63
2024-03-05T00:35:24.521Z,9.59
2024-03-05T00:36:24.505Z,9.55
2024-03-05T00:37:24.504Z,9.49
2024-03-05T00:38:29.101Z,9.41
2024-03-05T00:42:32.441Z,9.24
2024-03-05T00:43:33.425Z,9.20
2024-03-05T00:44:33.406Z,9.13
2024-03-05T00:45:33.404Z,9.12
2024-03-05T00:46:33.380Z,9.08
2024-03-05T00:47:33.405Z,9.04
2024-03-05T00:48:33.348Z,9.01
2024-03-05T00:49:33.346Z,9.00
2024-03-05T00:50:33.348Z,8.93
2024-03-05T00:51:33.309Z,8.86
2024-03-05T00:52:33.567Z,8.80
2024-03-05T00:53:33.313Z,8.79
2024-03-05T00:54:33.286Z,8.78
2024-03-05T00:55:33.296Z,8.73
2024-03-05T00:56:33.266Z,8.70
2024-03-05T00:57:33.250Z,8.71
2024-03-05T00:58:33.319Z,8.71
2024-03-05T00:59:33.270Z,8.71
2024-03-05T01:00:33.250Z,8.71
2024-03-05T01:01:33.293Z,8.70
2024-03-05T01:02:33.232Z,8.70
2024-03-05T01:03:33.195Z,8.65
2024-03-05T01:04:33.201Z,8.58
2024-03-05T01:05:33.178Z,8.50
2024-03-05T01:06:33.158Z,8.45
2024-03-05T01:07:33.141Z,8.40
2024-03-05T01:08:33.146Z,8.37
2024-03-05T01:09:33.111Z,8.36
2024-03-05T01:10:33.157Z,8.32
2024-03-05T01:11:33.194Z,8.29
2024-03-05T01:12:33.088Z,8.25
2024-03-05T01:13:33.090Z,8.21
2024-03-05T01:14:33.052Z,8.18
2024-03-05T01:15:33.052Z,8.13
2024-03-05T01:16:33.104Z,8.07
2024-03-05T01:17:33.086Z,8.04
2024-03-05T01:18:33.015Z,8.02
2024-03-05T01:19:33.009Z,8.00
2024-03-05T01:20:32.983Z,8.00
2024-03-05T01:21:32.972Z,7.96
2024-03-05T01:22:32.990Z,7.92
2024-03-05T01:23:33.017Z,7.89
2024-03-05T01:24:32.977Z,7.89
2024-03-05T01:25:32.949Z,7.86
2024-03-05T01:26:32.927Z,7.86
2024-03-05T01:27:32.901Z,7.86
2024-03-05T01:28:32.995Z,7.88
2024-03-05T01:29:32.926Z,7.84
2024-03-05T01:30:32.874Z,7.81
2024-03-05T01:31:32.932Z,7.76
2024-03-05T01:32:32.869Z,7.70
2024-03-05T01:33:32.833Z,7.63
2024-03-05T01:34:32.866Z,7.55
2024-03-05T01:35:32.847Z,7.48
2024-03-05T01:36:32.822Z,7.44
2024-03-05T01:37:32.817Z,7.39
2024-03-05T01:38:32.782Z,7.44
2024-03-05T01:39:32.789Z,7.39
2024-03-05T01:40:32.859Z,7.32
2024-03-05T01:41:32.759Z,7.24
2024-03-05T01:42:32.740Z,7.33
2024-03-05T01:43:32.784Z,7.39
2024-03-05T01:44:32.709Z,7.48
2024-03-05T01:45:32.699Z,7.57
2024-03-05T01:46:32.776Z,7.62
2024-03-05T01:47:32.722Z,7.67
2024-03-05T01:48:32.716Z,7.69
2024-03-05T01:49:32.649Z,7.73
2024-03-05T01:50:32.644Z,7.76
2024-03-05T01:51:32.627Z,7.79
2024-03-05T01:52:32.665Z,7.77
2024-03-05T01:53:32.576Z,7.79
2024-03-05T01:54:32.564Z,7.77
2024-03-05T01:55:32.570Z,7.82
2024-03-05T01:56:32.556Z,7.79
2024-03-05T01:57:32.541Z,7.79
2024-03-05T01:58:32.535Z,7.82
2024-03-05T01:59:32.512Z,7.84
2024-03-05T02:00:32.550Z,7.84
2024-03-05T02:01:32.609Z,7.82
2024-03-05T02:02:32.483Z,7.84
2024-03-05T02:03:32.461Z,7.82
2024-03-05T02:05:32.446Z,7.79
2024-03-05T02:06:32.458Z,7.76
2024-03-05T02:07:32.440Z,7.76
2024-03-05T02:08:32.420Z,7.76
2024-03-05T02:09:32.407Z,7.77
2024-03-05T02:10:32.455Z,7.77
2024-03-05T02:11:32.421Z,7.77
2024-03-05T02:12:32.386Z,7.84
2024-03-05T02:13:32.387Z,7.86
2024-03-05T02:14:32.346Z,7.86
2024-03-05T02:15:32.338Z,7.85
2024-03-05T02:16:32.334Z,7.88
2024-03-05T02:17:32.341Z,7.89
2024-03-05T02:18:32.293Z,7.88
2024-03-05T02:19:32.457Z,7.89
2024-03-05T02:20:32.281Z,7.88
2024-03-05T02:21:32.265Z,7.89
2024-03-05T02:22:32.291Z,7.91
2024-03-05T02:23:32.236Z,7.89
2024-03-05T02:24:32.268Z,7.88
2024-03-05T02:25:32.278Z,7.91
2024-03-05T02:26:32.201Z,7.94
2024-03-05T02:27:35.038Z,7.94
2024-03-05T02:28:32.227Z,7.95
2024-03-05T02:29:32.184Z,7.99
2024-03-05T02:30:32.153Z,8.00
2024-03-05T02:31:32.175Z,8.04
2024-03-05T02:32:32.205Z,8.07
2024-03-05T02:33:32.169Z,8.07
2024-03-05T02:34:32.125Z,8.10
2024-03-05T02:35:32.117Z,8.10
2024-03-05T02:36:32.120Z,8.13
2024-03-05T02:37:32.124Z,8.13
2024-03-05T02:38:32.094Z,8.14
2024-03-05T02:39:32.087Z,8.13
2024-03-05T02:40:32.076Z,8.17
2024-03-05T02:41:32.060Z,8.18
2024-03-05T02:42:32.025Z,8.20
2024-03-05T02:43:32.066Z,8.20
2024-03-05T02:44:32.016Z,8.20
2024-03-05T02:45:32.008Z,8.21
2024-03-05T02:46:32.002Z,8.24
2024-03-05T02:47:31.989Z,8.22
2024-03-05T02:48:31.967Z,8.24
2024-03-05T02:49:31.968Z,8.22
2024-03-05T02:50:31.936Z,8.24
2024-03-05T02:51:31.944Z,8.24
2024-03-05T02:52:31.942Z,8.27
2024-03-05T02:53:31.894Z,8.28
2024-03-05T02:54:31.913Z,8.28
2024-03-05T02:55:31.886Z,8.28
2024-03-05T02:56:31.862Z,8.32
2024-03-05T02:57:31.862Z,8.31
2024-03-05T02:58:31.858Z,8.34
2024-03-05T02:59:31.862Z,8.34
2024-03-05T03:00:31.834Z,8.36
2024-03-05T03:01:31.832Z,8.37
2024-03-05T03:02:31.797Z,8.39
2024-03-05T03:03:31.797Z,8.42
2024-03-05T03:04:31.840Z,8.43
2024-03-05T03:05:31.771Z,8.43
2024-03-05T03:06:31.767Z,8.46
2024-03-05T03:07:31.779Z,8.46
2024-03-05T03:08:31.736Z,8.46
2024-03-05T03:09:31.734Z,8.43
2024-03-05T03:10:31.730Z,8.42
2024-03-05T03:11:31.716Z,8.42
2024-03-05T03:12:31.700Z,8.42
2024-03-05T03:13:31.780Z,8.43
2024-03-05T03:14:31.672Z,8.45
2024-03-05T03:15:31.714Z,8.46
2024-03-05T03:16:31.656Z,8.46
2024-03-05T03:17:34.499Z,8.50
2024-03-05T03:18:31.613Z,8.52
2024-03-05T03:19:31.640Z,8.54
2024-03-05T03:20:31.624Z,8.55
2024-03-05T03:21:31.598Z,8.60
2024-03-05T03:22:31.625Z,8.61
2024-03-05T03:23:31.553Z,8.63
2024-03-05T03:24:31.563Z,8.64
2024-03-05T03:25:35.330Z,8.63
2024-03-05T03:26:31.578Z,8.63
2024-03-05T03:27:31.571Z,8.64
2024-03-05T03:28:31.554Z,8.67
2024-03-05T03:29:31.490Z,8.67
2024-03-05T03:30:31.515Z,8.68
2024-03-05T03:31:31.593Z,8.71
2024-03-05T03:32:31.462Z,8.71
2024-03-05T03:33:31.455Z,8.75
2024-03-05T03:34:31.527Z,8.76
2024-03-05T03:35:31.436Z,8.79
2024-03-05T03:36:31.443Z,8.80
2024-03-05T03:37:31.395Z,8.83
2024-03-05T03:38:31.403Z,8.85
2024-03-05T03:39:31.411Z,8.85
2024-03-05T03:40:31.413Z,8.86
2024-03-05T03:41:31.411Z,8.89
2024-03-05T03:42:31.370Z,8.93
2024-03-05T03:43:31.355Z,8.94
2024-03-05T03:44:31.335Z,8.96
2024-03-05T03:45:31.315Z,8.98
2024-03-05T03:46:31.324Z,8.97
2024-03-05T03:47:31.345Z,8.97
2024-03-05T03:48:31.289Z,8.97
2024-03-05T03:49:31.297Z,9.00
2024-03-05T03:50:31.268Z,8.98
2024-03-05T03:51:31.249Z,8.97
2024-03-05T03:52:31.301Z,8.97
2024-03-05T03:53:31.220Z,8.98
2024-03-05T03:54:31.213Z,8.98
2024-03-05T03:55:31.304Z,8.98
2024-03-05T03:56:31.195Z,8.97
2024-03-05T03:57:31.196Z,8.98
2024-03-05T03:58:31.195Z,9.01
2024-03-05T03:59:31.155Z,9.03
2024-03-05T04:00:31.141Z,9.03
2024-03-05T04:01:31.192Z,9.01
2024-03-05T04:02:31.174Z,9.01
2024-03-05T04:03:31.105Z,9.01
2024-03-05T04:04:31.152Z,9.01
2024-03-05T04:05:31.086Z,9.03
2024-03-05T04:06:31.077Z,9.06
2024-03-05T04:07:31.126Z,9.06
2024-03-05T04:08:31.073Z,9.06
2024-03-05T04:09:31.050Z,9.04
2024-03-05T04:10:31.105Z,9.04
2024-03-05T04:11:31.045Z,9.06
2024-03-05T04:12:31.012Z,9.08
2024-03-05T04:13:31.050Z,9.06
2024-03-05T04:14:31.006Z,9.08
2024-03-05T04:15:30.983Z,9.06
2024-03-05T04:16:31.028Z,9.08
2024-03-05T04:17:30.980Z,9.06
2024-03-05T04:18:30.961Z,9.06
2024-03-05T04:19:30.976Z,9.06
2024-03-05T04:20:30.915Z,9.04
2024-03-05T04:21:30.912Z,9.04
2024-03-05T04:22:30.946Z,9.06
2024-03-05T04:23:30.903Z,9.06
2024-03-05T04:24:30.881Z,9.06
2024-03-05T04:25:32.714Z,9.06
2024-03-05T04:26:30.851Z,9.10
2024-03-05T04:27:30.837Z,9.10
2024-03-05T04:28:30.883Z,9.10
2024-03-05T04:29:30.832Z,9.12
2024-03-05T04:30:30.817Z,9.10
2024-03-05T04:31:34.839Z,9.10
2024-03-05T04:32:30.874Z,9.08
2024-03-05T04:33:30.873Z,9.10
2024-03-05T04:34:30.794Z,9.12
2024-03-05T04:35:30.829Z,9.10
2024-03-05T04:36:30.763Z,9.12
2024-03-05T04:37:30.775Z,9.12
2024-03-05T04:38:30.720Z,9.08
2024-03-05T04:39:30.719Z,9.06
2024-03-05T04:40:30.746Z,9.08
2024-03-05T04:41:30.679Z,9.08
2024-03-05T04:42:30.686Z,9.06
2024-03-05T04:43:30.719Z,9.04
2024-03-05T04:44:30.675Z,9.08
2024-03-05T04:45:30.638Z,9.08
2024-03-05T04:46:30.653Z,9.06
2024-03-05T04:47:30.652Z,9.08
2024-03-05T04:48:30.606Z,9.08
2024-03-05T04:49:30.636Z,9.08
2024-03-05T04:50:30.595Z,9.06
2024-03-05T04:51:30.572Z,9.08
2024-03-05T04:52:32.911Z,9.06
2024-03-05T04:53:30.548Z,9.04
2024-03-05T04:54:30.541Z,9.04
2024-03-05T04:55:30.910Z,9.04
2024-03-05T04:56:30.551Z,9.01
2024-03-05T04:57:30.506Z,9.00
2024-03-05T04:58:30.517Z,9.03
2024-03-05T04:59:30.473Z,9.00
2024-03-05T05:00:30.511Z,9.01
2024-03-05T05:01:30.495Z,9.00
2024-03-05T05:02:30.504Z,8.97
2024-03-05T05:03:30.434Z,8.93
2024-03-05T05:04:30.438Z,8.89
2024-03-05T05:05:30.419Z,8.86
2024-03-05T05:06:30.414Z,8.85
2024-03-05T05:07:30.431Z,8.86
2024-03-05T05:08:30.387Z,8.82
2024-03-05T05:09:30.368Z,8.82
2024-03-05T05:10:30.416Z,8.85
2024-03-05T05:11:30.515Z,8.86
2024-03-05T05:12:30.355Z,8.88
2024-03-05T05:13:30.403Z,8.86
2024-03-05T05:14:30.353Z,8.85
2024-03-05T05:15:30.312Z,8.86
2024-03-05T05:16:30.361Z,8.86
2024-03-05T05:17:30.301Z,8.86
2024-03-05T05:18:30.296Z,8.86
2024-03-05T05:19:30.293Z,8.86
2024-03-05T05:20:30.251Z,8.88
2024-03-05T05:21:30.280Z,8.86
2024-03-05T05:22:30.275Z,8.85
2024-03-05T05:23:30.229Z,8.88
2024-03-05T05:24:30.228Z,8.88
2024-03-05T05:25:30.259Z,8.86
2024-03-05T05:26:30.192Z,8.88
2024-03-05T05:27:30.179Z,8.88
2024-03-05T05:28:30.413Z,8.85
2024-03-05T05:29:39.965Z,8.85
2024-03-05T05:30:30.172Z,8.86
2024-03-05T05:31:30.339Z,8.86
2024-03-05T05:32:30.229Z,8.88
2024-03-05T05:33:30.214Z,8.91
2024-03-05T05:34:30.229Z,8.89
2024-03-05T05:35:30.188Z,8.88
2024-03-05T05:36:30.170Z,8.86
2024-03-05T05:37:30.129Z,8.89
2024-03-05T05:38:30.061Z,8.91
2024-03-05T05:39:30.092Z,8.91
2024-03-05T05:40:30.063Z,8.93
2024-03-05T05:41:30.031Z,8.91
2024-03-05T05:42:30.046Z,8.93
2024-03-05T05:43:30.047Z,8.96
2024-03-05T05:44:29.973Z,8.93
2024-03-05T05:45:29.972Z,8.94
2024-03-05T05:46:30.000Z,8.94
2024-03-05T05:47:30.053Z,8.94
2024-03-05T05:48:30.322Z,8.94
2024-03-05T05:49:29.953Z,8.94
2024-03-05T05:50:30.630Z,8.91
2024-03-05T05:51:29.903Z,8.93
2024-03-05T05:52:29.944Z,8.93
2024-03-05T05:53:29.878Z,8.89
2024-03-05T05:54:29.934Z,8.86
2024-03-05T05:55:30.047Z,8.83
2024-03-05T05:56:29.903Z,8.86
2024-03-05T05:57:29.888Z,8.88
2024-03-05T05:58:29.867Z,8.93
2024-03-05T05:59:29.883Z,8.91
2024-03-05T06:00:29.811Z,8.89
2024-03-05T06:01:29.875Z,8.88
2024-03-05T06:02:29.869Z,8.91
2024-03-05T06:03:29.782Z,8.91
2024-03-05T06:04:29.804Z,8.93
2024-03-05T06:05:29.746Z,8.93
2024-03-05T06:06:29.766Z,8.93
2024-03-05T06:07:29.724Z,8.96
2024-03-05T06:08:29.722Z,8.93
2024-03-05T06:09:29.738Z,8.93
2024-03-05T06:10:29.732Z,8.94
2024-03-05T06:11:29.827Z,8.97
2024-03-05T06:12:29.761Z,8.97
2024-03-05T06:13:29.749Z,8.97
2024-03-05T06:14:29.705Z,8.96
2024-03-05T06:15:29.681Z,8.97
2024-03-05T06:16:29.696Z,8.96
2024-03-05T06:17:29.727Z,8.96
2024-03-05T06:18:29.632Z,8.89
2024-03-05T06:19:29.647Z,8.89
2024-03-05T06:20:29.622Z,8.83
2024-03-05T06:21:29.547Z,8.88
2024-03-05T06:22:34.155Z,8.93
2024-03-05T06:23:29.575Z,8.97
2024-03-05T06:24:29.543Z,8.94
2024-03-05T06:25:29.633Z,8.91
2024-03-05T06:26:29.518Z,8.85
2024-03-05T06:27:29.512Z,8.89
2024-03-05T06:28:29.589Z,8.94
2024-03-05T06:29:29.470Z,8.94
2024-03-05T06:30:29.550Z,8.97
2024-03-05T06:31:29.460Z,8.98
2024-03-05T06:32:29.471Z,8.98
2024-03-05T06:33:29.500Z,8.85
2024-03-05T06:34:29.475Z,8.85
2024-03-05T06:35:29.444Z,8.88
2024-03-05T06:36:29.408Z,8.89
2024-03-05T06:37:29.393Z,8.89
2024-03-05T06:38:29.488Z,8.88
2024-03-05T06:39:29.392Z,8.89
2024-03-05T06:40:30.367Z,8.80
2024-03-05T06:41:29.349Z,8.88
2024-03-05T06:42:29.367Z,8.89
2024-03-05T06:43:29.365Z,8.93
2024-03-05T06:44:29.319Z,8.98
2024-03-05T06:45:29.627Z,9.04
2024-03-05T06:46:29.327Z,9.15
2024-03-05T06:47:29.328Z,9.20
2024-03-05T06:48:29.302Z,9.23
2024-03-05T06:49:29.263Z,9.27
2024-03-05T06:50:29.229Z,9.26
2024-03-05T06:51:29.216Z,9.23
2024-03-05T06:52:29.291Z,9.31
2024-03-05T06:53:29.231Z,9.34
2024-03-05T06:54:29.191Z,9.37
2024-03-05T06:55:29.190Z,9.41
2024-03-05T06:56:29.168Z,9.48
2024-03-05T06:57:29.175Z,9.49
2024-03-05T06:58:29.146Z,9.50
2024-03-05T06:59:29.140Z,9.53
2024-03-05T07:00:29.132Z,9.58
2024-03-05T07:01:29.275Z,9.58
2024-03-05T07:02:29.118Z,9.62
2024-03-05T07:03:29.082Z,9.67
2024-03-05T07:04:29.133Z,9.68
2024-03-05T07:05:29.060Z,9.71
2024-03-05T07:06:29.047Z,9.73
2024-03-05T07:07:29.071Z,9.77
2024-03-05T07:08:29.074Z,9.80
2024-03-05T07:09:29.037Z,9.81
2024-03-05T07:10:29.029Z,9.86
2024-03-05T07:11:29.064Z,9.89
2024-03-05T07:12:28.999Z,9.92
2024-03-05T07:13:29.019Z,9.95
2024-03-05T07:14:28.994Z,9.98
2024-03-05T07:15:28.950Z,9.98
2024-03-05T07:16:28.961Z,10.02
2024-03-05T07:17:28.939Z,10.04
2024-03-05T07:18:28.934Z,10.09
2024-03-05T07:19:28.968Z,10.09
2024-03-05T07:20:28.900Z,10.13
2024-03-05T07:21:28.894Z,10.16
2024-03-05T07:22:28.884Z,10.20
2024-03-05T07:23:28.875Z,10.29
2024-03-05T07:24:28.862Z,10.32
2024-03-05T07:25:28.894Z,10.35
2024-03-05T07:26:28.826Z,10.32
2024-03-05T07:27:28.816Z,10.36
2024-03-05T07:28:28.873Z,10.42
2024-03-05T07:29:28.818Z,10.42
2024-03-05T07:30:28.773Z,10.44
2024-03-05T07:31:28.787Z,10.49
2024-03-05T07:32:28.771Z,10.55
2024-03-05T07:33:28.755Z,10.58
2024-03-05T07:34:28.759Z,10.57
2024-03-05T07:35:28.726Z,10.58
2024-03-05T07:36:28.720Z,10.62
2024-03-05T07:37:28.778Z,10.63
2024-03-05T07:38:28.711Z,10.63
2024-03-05T07:39:28.667Z,10.65
2024-03-05T07:40:28.676Z,10.68
2024-03-05T07:41:33.834Z,10.75
2024-03-05T07:42:28.658Z,10.76
2024-03-05T07:43:28.818Z,10.78
2024-03-05T07:44:28.732Z,10.80
2024-03-05T07:45:28.612Z,10.81
2024-03-05T07:46:28.620Z,10.81
2024-03-05T07:47:28.592Z,10.87
2024-03-05T07:48:28.587Z,10.91
2024-03-05T07:49:28.644Z,10.94
2024-03-05T07:50:28.549Z,10.98
2024-03-05T07:51:29.617Z,11.02
2024-03-05T07:52:28.601Z,11.06
2024-03-05T07:53:28.536Z,11.09
2024-03-05T07:54:28.507Z,11.08
2024-03-05T07:55:32.150Z,11.11
2024-03-05T07:56:28.608Z,11.16
2024-03-05T07:57:28.496Z,11.17
2024-03-05T07:58:28.495Z,11.21
2024-03-05T07:59:28.447Z,11.27
2024-03-05T08:00:28.438Z,11.28
2024-03-05T08:01:28.497Z,11.36
2024-03-05T08:02:28.405Z,11.39
2024-03-05T08:03:28.448Z,11.45
2024-03-05T08:04:28.423Z,11.51
2024-03-05T08:05:28.421Z,11.59
2024-03-05T08:06:28.370Z,11.62
2024-03-05T08:07:28.387Z,11.62
2024-03-05T08:08:28.354Z,11.49
2024-03-05T08:09:28.349Z,11.42
2024-03-05T08:10:28.356Z,11.48
2024-03-05T08:11:28.372Z,11.48
2024-03-05T08:12:28.309Z,11.48
2024-03-05T08:13:28.319Z,11.57
2024-03-05T08:14:28.275Z,11.67
2024-03-05T08:15:28.266Z,11.70
2024-03-05T08:16:28.291Z,11.67
2024-03-05T08:17:28.283Z,11.67
2024-03-05T08:18:28.253Z,11.67
2024-03-05T08:19:28.280Z,11.70
2024-03-05T08:20:28.241Z,11.67
2024-03-05T08:21:28.211Z,11.69
2024-03-05T08:22:28.188Z,11.67
2024-03-05T08:23:28.200Z,11.66
2024-03-05T08:24:28.158Z,11.64
2024-03-05T08:25:28.173Z,11.62
2024-03-05T08:26:28.142Z,11.66
2024-03-05T08:27:28.121Z,11.69
2024-03-05T08:28:28.153Z,11.72
2024-03-05T08:29:28.123Z,11.74
2024-03-05T08:30:28.092Z,11.78
2024-03-05T08:31:28.120Z,11.77
2024-03-05T08:32:28.087Z,11.85
2024-03-05T08:33:28.148Z,11.90
2024-03-05T08:34:28.099Z,11.96
2024-03-05T08:35:28.044Z,11.96
2024-03-05T08:36:28.020Z,11.98
2024-03-05T08:37:28.044Z,12.03
2024-03-05T08:38:28.012Z,12.07
2024-03-05T08:39:27.998Z,12.08
2024-03-05T08:40:28.027Z,12.08
2024-03-05T08:41:27.979Z,12.12
2024-03-05T08:42:27.964Z,12.12
2024-03-05T08:43:28.005Z,11.96
2024-03-05T08:44:27.943Z,11.97
2024-03-05T08:45:27.928Z,12.01
2024-03-05T08:46:27.940Z,12.12
2024-03-05T08:47:27.935Z,12.18
2024-03-05T08:48:27.915Z,12.26
2024-03-05T08:49:27.914Z,12.36
2024-03-05T08:50:27.859Z,12.41
2024-03-05T08:51:27.851Z,12.51
2024-03-05T08:52:27.879Z,12.49
2024-03-05T08:53:27.845Z,12.48
2024-03-05T08:54:28.072Z,12.41
2024-03-05T08:55:28.186Z,12.38
2024-03-05T08:56:27.897Z,12.05
2024-03-05T08:57:27.803Z,12.13
2024-03-05T08:58:27.964Z,12.23
2024-03-05T08:59:27.837Z,12.33
2024-03-05T09:00:37.168Z,12.43
2024-03-05T09:01:27.982Z,12.30
2024-03-05T09:02:27.798Z,12.22
2024-03-05T09:03:27.801Z,12.12
2024-03-05T09:04:27.806Z,12.11
2024-03-05T09:05:27.771Z,12.22
2024-03-05T09:06:27.755Z,12.25
2024-03-05T09:07:27.808Z,12.07
2024-03-05T09:08:27.753Z,12.15
2024-03-05T09:09:27.740Z,12.26
2024-03-05T09:10:28.020Z,12.38
2024-03-05T09:11:27.746Z,12.41
2024-03-05T09:12:27.681Z,12.43
2024-03-05T09:13:27.709Z,12.49
2024-03-05T09:14:27.631Z,12.54
2024-03-05T09:15:27.642Z,12.59
2024-03-05T09:16:27.625Z,12.41
2024-03-05T09:17:27.596Z,12.31
2024-03-05T09:18:27.604Z,12.36
2024-03-05T09:19:27.605Z,12.48
2024-03-05T09:20:27.619Z,12.55
2024-03-05T09:21:27.581Z,12.62
2024-03-05T09:22:27.546Z,12.59
2024-03-05T09:23:27.542Z,12.51
2024-03-05T09:24:27.517Z,12.48
2024-03-05T09:25:27.529Z,12.36
2024-03-05T09:26:27.534Z,12.43
2024-03-05T09:27:27.491Z,12.51
2024-03-05T09:28:27.489Z,12.55
2024-03-05T09:29:28.513Z,12.63
2024-03-05T09:30:27.476Z,12.73
2024-03-05T09:31:27.464Z,12.73
2024-03-05T09:32:27.467Z,12.70
2024-03-05T09:33:27.454Z,12.74
2024-03-05T09:34:27.461Z,12.74
2024-03-05T09:35:27.368Z,12.74
2024-03-05T09:36:27.411Z,12.77
2024-03-05T09:37:27.368Z,12.80
2024-03-05T09:38:27.348Z,12.63
2024-03-05T09:39:27.370Z,12.69
2024-03-05T09:40:27.340Z,12.77
2024-03-05T09:41:27.316Z,12.80
2024-03-05T09:42:27.309Z,12.73
2024-03-05T09:43:27.370Z,12.80
2024-03-05T09:44:27.287Z,12.81
2024-03-05T09:45:27.366Z,12.81
2024-03-05T09:46:27.314Z,12.81
2024-03-05T09:47:27.376Z,12.71
2024-03-05T09:48:27.301Z,12.77
2024-03-05T09:49:29.015Z,12.88
2024-03-05T09:50:27.359Z,12.94
2024-03-05T09:51:27.267Z,12.96
2024-03-05T09:52:27.205Z,12.94
2024-03-05T09:53:27.215Z,12.98
2024-03-05T09:54:27.855Z,12.95
2024-03-05T09:55:27.251Z,12.74
2024-03-05T09:56:27.196Z,12.77
2024-03-05T09:57:27.115Z,12.84
2024-03-05T09:58:27.399Z,12.88
2024-03-05T09:59:27.176Z,12.59
2024-03-05T10:00:27.128Z,12.61
2024-03-05T10:01:27.170Z,12.63
2024-03-05T10:02:29.064Z,12.69
2024-03-05T10:03:27.077Z,12.73
2024-03-05T10:04:27.104Z,12.81
2024-03-05T10:05:27.131Z,12.87
2024-03-05T10:06:27.086Z,12.96
2024-03-05T10:07:27.282Z,12.94
2024-03-05T10:08:27.040Z,12.91
2024-03-05T10:09:27.012Z,12.92
2024-03-05T10:10:27.109Z,12.94
2024-03-05T10:11:27.119Z,12.95
2024-03-05T10:12:26.999Z,12.98
2024-03-05T10:13:26.993Z,12.96
2024-03-05T10:14:26.918Z,12.91
2024-03-05T10:15:27.469Z,12.85
2024-03-05T10:16:26.914Z,12.80
2024-03-05T10:17:26.925Z,12.80
2024-03-05T10:18:26.861Z,12.79
2024-03-05T10:19:26.957Z,12.73
2024-03-05T10:20:26.910Z,12.61
2024-03-05T10:21:26.858Z,12.56
2024-03-05T10:22:26.863Z,12.55
2024-03-05T10:23:29.061Z,12.43
2024-03-05T10:24:26.799Z,12.29
2024-03-05T10:25:26.837Z,12.25
2024-03-05T10:26:26.773Z,12.22
2024-03-05T10:27:26.761Z,12.22
2024-03-05T10:28:26.809Z,12.30
2024-03-05T10:29:26.745Z,12.18
2024-03-05T10:30:26.737Z,12.19
2024-03-05T10:31:26.825Z,12.16
2024-03-05T10:32:26.734Z,12.23
2024-03-05T10:33:26.732Z,12.30
2024-03-05T10:34:26.722Z,12.33
2024-03-05T10:35:27.076Z,12.34
2024-03-05T10:36:26.666Z,12.36
2024-03-05T10:37:26.701Z,12.26
2024-03-05T10:38:26.643Z,12.03
2024-03-05T10:39:26.653Z,12.13
2024-03-05T10:40:26.645Z,12.22
2024-03-05T10:41:31.927Z,12.15
2024-03-05T10:42:26.599Z,11.98
2024-03-05T10:43:26.599Z,12.08
2024-03-05T10:44:26.595Z,12.03
2024-03-05T10:45:26.577Z,11.96
2024-03-05T10:46:26.590Z,12.01
2024-03-05T10:47:29.194Z,12.05
2024-03-05T10:48:26.643Z,12.19
2024-03-05T10:49:26.553Z,12.23
2024-03-05T10:50:26.539Z,12.22
2024-03-05T10:51:26.502Z,12.33
2024-03-05T10:52:26.544Z,12.40
2024-03-05T10:53:26.485Z,12.44
2024-03-05T10:54:26.487Z,12.54
2024-03-05T10:55:26.613Z,12.56
2024-03-05T10:56:29.295Z,12.61
2024-03-05T10:57:26.444Z,12.62
2024-03-05T10:58:26.419Z,12.63
2024-03-05T10:59:26.475Z,12.66
2024-03-05T11:00:26.419Z,12.69
2024-03-05T11:01:26.473Z,12.63
2024-03-05T11:02:26.477Z,12.69
2024-03-05T11:03:26.381Z,12.73
2024-03-05T11:04:26.380Z,12.74
2024-03-05T11:05:26.354Z,12.77
2024-03-05T11:06:26.331Z,12.88
2024-03-05T11:07:26.330Z,12.85
2024-03-05T11:08:26.934Z,12.71
2024-03-05T11:09:26.305Z,12.76
2024-03-05T11:10:26.372Z,12.73
2024-03-05T11:11:26.416Z,12.84
2024-03-05T11:12:26.256Z,12.92
2024-03-05T11:13:26.324Z,13.01
2024-03-05T11:14:26.240Z,13.07
2024-03-05T11:15:26.246Z,12.98
2024-03-05T11:16:27.688Z,12.79
2024-03-05T11:17:26.362Z,12.76
2024-03-05T11:18:26.204Z,12.69
2024-03-05T11:19:26.211Z,12.73
2024-03-05T11:20:26.258Z,12.76
2024-03-05T11:21:26.162Z,12.84
2024-03-05T11:22:26.240Z,12.94
2024-03-05T11:23:26.128Z,12.99
2024-03-05T11:24:26.126Z,13.06
2024-03-05T11:25:26.164Z,13.12
2024-03-05T11:26:26.106Z,13.14
2024-03-05T11:27:26.089Z,13.22
2024-03-05T11:28:26.110Z,13.27
2024-03-05T11:29:26.069Z,13.32
2024-03-05T11:30:26.072Z,13.32
2024-03-05T11:31:26.104Z,13.25
2024-03-05T11:32:26.072Z,12.88
2024-03-05T11:33:26.029Z,12.77
2024-03-05T11:34:26.017Z,12.62
2024-03-05T11:35:26.012Z,12.59
2024-03-05T11:36:25.984Z,12.67
2024-03-05T11:37:25.997Z,12.70
2024-03-05T11:38:25.969Z,12.76
2024-03-05T11:39:25.959Z,12.67
2024-03-05T11:40:26.001Z,12.77
2024-03-05T11:41:25.946Z,12.88
2024-03-05T11:42:25.919Z,12.81
2024-03-05T11:43:25.932Z,12.89
2024-03-05T11:44:25.905Z,12.84
2024-03-05T11:45:25.919Z,12.89
2024-03-05T11:46:25.905Z,12.88
2024-03-05T11:47:25.977Z,12.76
2024-03-05T11:48:25.856Z,12.81
2024-03-05T11:49:25.913Z,12.88
2024-03-05T11:50:25.832Z,12.91
2024-03-05T11:51:25.869Z,12.94
2024-03-05T11:52:25.841Z,12.94
2024-03-05T11:53:25.796Z,12.91
2024-03-05T11:54:25.780Z,12.88
2024-03-05T11:55:25.862Z,12.84
2024-03-05T11:56:25.779Z,12.88
2024-03-05T11:57:25.779Z,12.95
2024-03-05T11:58:25.966Z,12.98
2024-03-05T11:59:25.722Z,12.69
2024-03-05T12:00:25.723Z,12.73
2024-03-05T12:01:25.776Z,12.81
2024-03-05T12:02:25.801Z,12.88
2024-03-05T12:03:25.708Z,12.70
2024-03-05T12:04:25.704Z,12.74
2024-03-05T12:05:25.747Z,12.71
2024-03-05T12:06:25.679Z,12.79
2024-03-05T12:07:25.664Z,12.88
2024-03-05T12:08:25.623Z,12.89
2024-03-05T12:09:25.627Z,12.94
2024-03-05T12:10:25.644Z,12.92
2024-03-05T12:11:25.632Z,12.79
2024-03-05T12:12:25.611Z,12.76
2024-03-05T12:13:25.578Z,12.81
2024-03-05T12:14:25.557Z,12.89
2024-03-05T12:15:25.562Z,12.88
2024-03-05T12:16:25.573Z,12.73
2024-03-05T12:17:26.120Z,12.85
2024-03-05T12:18:25.514Z,12.73
2024-03-05T12:19:25.522Z,12.79
2024-03-05T12:20:25.498Z,12.87
2024-03-05T12:21:27.568Z,12.98
2024-03-05T12:22:25.485Z,13.06
2024-03-05T12:23:41.004Z,13.13
2024-03-05T12:24:25.530Z,13.17
2024-03-05T12:25:25.457Z,13.22
2024-03-05T12:26:25.430Z,13.28
2024-03-05T12:27:25.422Z,13.35
2024-03-05T12:28:25.448Z,13.32
2024-03-05T12:29:25.406Z,13.39
2024-03-05T12:30:25.763Z,13.39
2024-03-05T12:31:25.440Z,13.35
2024-03-05T12:32:25.392Z,13.43
2024-03-05T12:33:25.369Z,13.47
2024-03-05T12:34:25.361Z,13.50
2024-03-05T12:35:25.312Z,13.51
2024-03-05T12:36:25.317Z,13.50
2024-03-05T12:37:25.352Z,13.46
2024-03-05T12:38:25.299Z,13.47
2024-03-05T12:39:25.277Z,13.48
2024-03-05T12:40:25.271Z,13.48
2024-03-05T12:41:25.263Z,13.46
2024-03-05T12:42:25.237Z,13.36
2024-03-05T12:43:25.260Z,13.27
2024-03-05T12:44:25.205Z,13.22
2024-03-05T12:45:25.220Z,13.24
2024-03-05T12:46:25.206Z,13.27
2024-03-05T12:47:25.213Z,13.29
2024-03-05T12:48:25.228Z,13.32
2024-03-05T12:49:25.200Z,13.35
2024-03-05T12:50:25.154Z,13.35
2024-03-05T12:51:25.152Z,13.36
2024-03-05T12:52:25.126Z,13.38
2024-03-05T12:53:25.123Z,13.35
2024-03-05T12:54:25.114Z,13.32
2024-03-05T12:55:25.111Z,13.35
2024-03-05T12:56:25.082Z,13.36
2024-03-05T12:57:25.064Z,13.36
2024-03-05T12:58:25.078Z,13.36
2024-03-05T12:59:25.067Z,13.31
2024-03-05T13:00:25.029Z,13.31
2024-03-05T13:01:25.101Z,13.35
2024-03-05T13:02:25.081Z,13.38
2024-03-05T13:03:24.994Z,13.35
2024-03-05T13:04:25.035Z,13.31
2024-03-05T13:05:24.995Z,13.31
2024-03-05T13:06:24.980Z,13.25
2024-03-05T13:07:25.017Z,13.13
2024-03-05T13:08:24.943Z,13.04
2024-03-05T13:09:24.941Z,12.96